createdAt,value
2024-02-29T00:00:12.896Z,101576.97
2024-02-29T00:02:40.516Z,101567.16
2024-02-29T00:05:08.021Z,101565.34
2024-02-29T00:07:35.164Z,101574.41
2024-02-29T00:10:02.369Z,101575.94
2024-02-29T00:12:29.563Z,101574.41
2024-02-29T00:14:56.867Z,101563.91
2024-02-29T00:17:24.025Z,101557.53
2024-02-29T00:19:51.181Z,101559.22
2024-02-29T00:22:18.377Z,101559.13
2024-02-29T00:24:45.601Z,101554.94
2024-02-29T00:27:12.775Z,101566.41
2024-02-29T00:29:39.977Z,101557.03
2024-02-29T00:32:08.956Z,101557.03
2024-02-29T00:34:36.173Z,101550.63
2024-02-29T00:37:03.430Z,101547.19
2024-02-29T00:39:30.642Z,101546.34
2024-02-29T00:41:58.295Z,101548.91
2024-02-29T00:44:25.679Z,101542.59
2024-02-29T00:46:53.025Z,101543.75
2024-02-29T00:49:20.237Z,101542.78
2024-02-29T00:51:47.539Z,101549.00
2024-02-29T00:54:14.720Z,101550.97
2024-02-29T00:56:42.184Z,101559.41
2024-02-29T00:59:09.313Z,101557.22
2024-02-29T01:01:36.542Z,101554.53
2024-02-29T01:04:04.968Z,101548.59
2024-02-29T01:06:32.226Z,101546.72
2024-02-29T01:08:59.417Z,101552.63
2024-02-29T01:11:26.683Z,101553.41
2024-02-29T01:13:53.883Z,101550.13
2024-02-29T01:16:21.088Z,101543.84
2024-02-29T01:18:48.333Z,101534.88
2024-02-29T01:21:15.566Z,101539.56
2024-02-29T01:23:42.858Z,101543.06
2024-02-29T01:26:11.626Z,101540.59
2024-02-29T01:28:38.797Z,101537.13
2024-02-29T01:31:06.906Z,101525.59
2024-02-29T01:33:34.216Z,101522.06
2024-02-29T01:36:01.642Z,101527.41
2024-02-29T01:38:28.805Z,101520.19
2024-02-29T01:40:55.947Z,101522.06
2024-02-29T01:43:23.413Z,101529.03
2024-02-29T01:45:50.775Z,101519.31
2024-02-29T01:48:17.962Z,101516.72
2024-02-29T01:50:45.115Z,101496.91
2024-02-29T01:53:12.258Z,101491.88
2024-02-29T01:55:39.394Z,101492.84
2024-02-29T01:58:06.570Z,101491.00
2024-02-29T02:00:34.336Z,101490.88
2024-02-29T02:03:01.529Z,101494.22
2024-02-29T02:05:28.665Z,101486.53
2024-02-29T02:07:55.822Z,101483.03
2024-02-29T02:10:23.003Z,101482.16
2024-02-29T02:12:50.197Z,101474.97
2024-02-29T02:15:17.357Z,101483.97
2024-02-29T02:17:44.514Z,101480.53
2024-02-29T02:20:18.441Z,101467.97
2024-02-29T02:22:45.726Z,101471.41
2024-02-29T02:25:13.533Z,101460.97
2024-02-29T02:27:40.799Z,101452.00
2024-02-29T02:30:08.349Z,101443.25
2024-02-29T02:32:36.501Z,101441.44
2024-02-29T02:35:05.270Z,101437.81
2024-02-29T02:37:32.678Z,101439.63
2024-02-29T02:39:59.970Z,101430.56
2024-02-29T02:42:27.175Z,101428.94
2024-02-29T02:44:54.328Z,101426.38
2024-02-29T02:47:21.469Z,101429.03
2024-02-29T02:49:48.613Z,101417.69
2024-02-29T02:52:15.836Z,101418.56
2024-02-29T02:54:43.062Z,101404.34
2024-02-29T02:57:10.311Z,101406.06
2024-02-29T02:59:37.464Z,101408.06
2024-02-29T03:02:04.646Z,101412.34
2024-02-29T03:04:31.821Z,101413.41
2024-02-29T03:06:59.044Z,101409.69
2024-02-29T03:09:26.218Z,101411.66
2024-02-29T03:11:53.643Z,101413.41
2024-02-29T03:14:20.872Z,101410.81
2024-02-29T03:16:48.133Z,101408.06
2024-02-29T03:19:15.406Z,101409.94
2024-02-29T03:21:42.745Z,101410.06
2024-02-29T03:24:09.884Z,101401.28
2024-02-29T03:26:37.069Z,101394.91
2024-02-29T03:29:04.247Z,101396.72
2024-02-29T03:31:31.440Z,101396.72
2024-02-29T03:33:58.911Z,101394.13
2024-02-29T03:36:26.066Z,101393.16
2024-02-29T03:38:53.444Z,101389.75
2024-02-29T03:41:20.583Z,101388.78
2024-02-29T03:43:47.722Z,101388.97
2024-02-29T03:46:14.909Z,101386.22
2024-02-29T03:48:42.255Z,101379.31
2024-02-29T03:51:09.746Z,101370.94
2024-02-29T03:53:36.922Z,101365.59
2024-02-29T03:56:04.193Z,101369.53
2024-02-29T03:58:31.410Z,101371.13
2024-02-29T04:00:58.585Z,101362.19
2024-02-29T04:03:25.753Z,101365.03
2024-02-29T04:05:53.151Z,101359.78
2024-02-29T04:08:20.302Z,101362.09
2024-02-29T04:10:50.112Z,101357.09
2024-02-29T04:13:20.224Z,101355.28
2024-02-29T04:15:50.000Z,101350.91
2024-02-29T04:18:17.869Z,101355.41
2024-02-29T04:20:47.668Z,101357.22
2024-02-29T04:23:14.827Z,101356.56
2024-02-29T04:25:41.988Z,101352.06
2024-02-29T04:28:09.191Z,101345.75
2024-02-29T04:30:36.432Z,101343.09
2024-02-29T04:33:07.036Z,101343.28
2024-02-29T04:35:34.933Z,101343.09
2024-02-29T04:38:02.502Z,101345.09
2024-02-29T04:40:30.443Z,101340.72
2024-02-29T04:42:57.672Z,101337.75
2024-02-29T04:45:25.639Z,101335.38
2024-02-29T04:47:53.839Z,101331.84
2024-02-29T04:50:21.050Z,101336.06
2024-02-29T04:52:48.222Z,101333.66
2024-02-29T04:55:15.525Z,101337.00
2024-02-29T04:57:42.831Z,101330.97
2024-02-29T05:00:11.399Z,101328.13
2024-02-29T05:02:38.643Z,101331.69
2024-02-29T05:05:07.508Z,101333.66
2024-02-29T05:07:34.888Z,101335.09
2024-02-29T05:10:02.521Z,101343.19
2024-02-29T05:12:29.732Z,101345.09
2024-02-29T05:14:56.937Z,101343.38
2024-02-29T05:17:24.595Z,101342.44
2024-02-29T05:19:52.996Z,101341.75
2024-02-29T05:22:21.008Z,101331.16
2024-02-29T05:24:48.314Z,101333.75
2024-02-29T05:27:15.487Z,101322.22
2024-02-29T05:29:42.690Z,101318.59
2024-02-29T05:32:09.896Z,101322.03
2024-02-29T05:34:37.093Z,101326.41
2024-02-29T05:37:04.269Z,101319.63
2024-02-29T05:39:31.442Z,101316.09
2024-02-29T05:41:58.624Z,101312.41
2024-02-29T05:44:25.809Z,101310.69
2024-02-29T05:46:52.954Z,101314.09
2024-02-29T05:49:20.188Z,101304.47
2024-02-29T05:51:47.498Z,101311.56
2024-02-29T05:54:14.670Z,101311.56
2024-02-29T05:56:41.799Z,101316.88
2024-02-29T05:59:09.813Z,101316.97
2024-02-29T06:01:37.117Z,101318.00
2024-02-29T06:04:04.448Z,101319.63
2024-02-29T06:06:32.069Z,101318.78
2024-02-29T06:08:59.298Z,101315.25
2024-02-29T06:11:26.496Z,101316.50
2024-02-29T06:13:53.658Z,101315.44
2024-02-29T06:16:21.779Z,101314.69
2024-02-29T06:18:49.318Z,101305.72
2024-02-29T06:21:16.549Z,101304.56
2024-02-29T06:23:43.694Z,101300.31
2024-02-29T06:26:10.826Z,101304.38
2024-02-29T06:28:38.164Z,101304.56
2024-02-29T06:31:05.485Z,101307.06
2024-02-29T06:33:32.780Z,101304.69
2024-02-29T06:36:00.126Z,101306.41
2024-02-29T06:38:27.356Z,101304.56
2024-02-29T06:40:54.537Z,101303.53
2024-02-29T06:43:21.809Z,101295.06
2024-02-29T06:45:49.620Z,101295.44
2024-02-29T06:48:17.142Z,101292.84
2024-02-29T06:50:44.508Z,101302.03
2024-02-29T06:53:11.672Z,101292.84
2024-02-29T06:55:39.008Z,101286.66
2024-02-29T06:58:06.692Z,101285.31
2024-02-29T07:00:34.002Z,101284.28
2024-02-29T07:03:01.826Z,101277.44
2024-02-29T07:05:29.779Z,101281.81
2024-02-29T07:07:57.634Z,101290.59
2024-02-29T07:10:24.875Z,101286.94
2024-02-29T07:12:52.086Z,101283.25
2024-02-29T07:15:19.337Z,101283.78
2024-02-29T07:17:47.044Z,101285.72
2024-02-29T07:20:14.771Z,101269.97
2024-02-29T07:22:42.672Z,101277.72
2024-02-29T07:25:10.137Z,101272.16
2024-02-29T07:27:38.044Z,101278.72
2024-02-29T07:30:06.001Z,101276.22
2024-02-29T07:32:33.170Z,101268.25
2024-02-29T07:35:00.355Z,101264.34
2024-02-29T07:37:27.634Z,101271.84
2024-02-29T07:39:55.002Z,101272.53
2024-02-29T07:42:22.186Z,101266.81
2024-02-29T07:44:49.510Z,101269.81
2024-02-29T07:47:16.641Z,101266.81
2024-02-29T07:49:43.770Z,101267.50
2024-02-29T07:52:10.928Z,101269.34
2024-02-29T07:54:38.195Z,101271.25
2024-02-29T07:57:05.456Z,101282.31
2024-02-29T07:59:33.252Z,101272.78
2024-02-29T08:02:00.582Z,101278.84
2024-02-29T08:04:27.822Z,101275.44
2024-02-29T08:06:54.973Z,101282.72
2024-02-29T08:09:22.192Z,101273.22
2024-02-29T08:11:49.405Z,101274.47
2024-02-29T08:14:18.970Z,101269.41
2024-02-29T08:16:47.864Z,101269.50
2024-02-29T08:19:15.732Z,101267.63
2024-02-29T08:21:42.935Z,101263.75
2024-02-29T08:24:10.101Z,101266.97
2024-02-29T08:26:37.234Z,101262.41
2024-02-29T08:29:04.380Z,101255.31
2024-02-29T08:31:31.687Z,101252.25
2024-02-29T08:33:58.963Z,101253.19
2024-02-29T08:36:26.187Z,101250.41
2024-02-29T08:38:53.325Z,101246.06
2024-02-29T08:41:20.628Z,101244.50
2024-02-29T08:43:50.152Z,101247.03
2024-02-29T08:46:18.468Z,101248.41
2024-02-29T08:48:46.913Z,101249.03
2024-02-29T08:51:14.116Z,101247.25
2024-02-29T08:53:41.290Z,101242.50
2024-02-29T08:56:08.465Z,101240.06
2024-02-29T08:58:35.600Z,101229.31
2024-02-29T09:01:03.386Z,101235.78
2024-02-29T09:03:30.613Z,101229.44
2024-02-29T09:05:57.822Z,101233.97
2024-02-29T09:08:24.946Z,101236.28
2024-02-29T09:10:52.128Z,101230.19
2024-02-29T09:13:29.821Z,101230.41
2024-02-29T09:16:02.284Z,101227.34
2024-02-29T09:18:30.344Z,101219.78
2024-02-29T09:20:58.045Z,101217.97
2024-02-29T09:23:25.252Z,101228.59
2024-02-29T09:25:52.400Z,101215.16
2024-02-29T09:28:19.651Z,101218.19
2024-02-29T09:30:46.887Z,101213.44
2024-02-29T09:33:14.147Z,101216.38
2024-02-29T09:35:41.301Z,101211.72
2024-02-29T09:38:08.563Z,101213.09
2024-02-29T09:40:42.466Z,101215.16
2024-02-29T09:43:16.880Z,101206.06
2024-02-29T09:45:46.586Z,101204.75
2024-02-29T09:48:13.871Z,101201.03
2024-02-29T09:50:41.259Z,101201.03
2024-02-29T09:53:08.548Z,101195.06
2024-02-29T09:55:38.205Z,101192.03
2024-02-29T09:58:05.467Z,101188.38
2024-02-29T10:00:34.069Z,101194.81
2024-02-29T10:03:01.835Z,101200.34
2024-02-29T10:05:28.998Z,101196.81
2024-02-29T10:07:56.145Z,101182.63
2024-02-29T10:10:23.605Z,101187.75
2024-02-29T10:12:55.976Z,101180.69
2024-02-29T10:15:26.817Z,101188.75
2024-02-29T10:17:54.116Z,101173.59
2024-02-29T10:20:22.518Z,101175.44
2024-02-29T10:22:55.841Z,101175.19
2024-02-29T10:25:23.190Z,101179.44
2024-02-29T10:27:50.494Z,101178.81
2024-02-29T10:30:18.155Z,101172.63
2024-02-29T10:32:45.741Z,101169.06
2024-02-29T10:35:22.075Z,101157.59
2024-02-29T10:37:53.484Z,101156.75
2024-02-29T10:40:20.963Z,101153.34
2024-02-29T10:42:52.121Z,101157.84
2024-02-29T10:45:19.369Z,101142.84
2024-02-29T10:47:50.571Z,101145.78
2024-02-29T10:50:20.837Z,101143.94
2024-02-29T10:52:49.376Z,101137.97
2024-02-29T10:55:18.353Z,101141.59
2024-02-29T10:58:04.546Z,101132.22
2024-02-29T11:00:31.788Z,101123.19
2024-02-29T11:02:58.981Z,101133.19
2024-02-29T11:05:26.110Z,101123.66
2024-02-29T11:07:53.291Z,101116.59
2024-02-29T11:10:20.513Z,101120.38
2024-02-29T11:12:49.744Z,101116.00
2024-02-29T11:15:24.923Z,101102.81
2024-02-29T11:17:52.888Z,101100.19
2024-02-29T11:20:20.472Z,101108.63
2024-02-29T11:22:48.538Z,101088.59
2024-02-29T11:25:22.393Z,101091.88
2024-02-29T11:27:51.811Z,101068.09
2024-02-29T11:30:21.988Z,101073.25
2024-02-29T11:32:49.225Z,101071.50
2024-02-29T11:35:16.408Z,101068.13
2024-02-29T11:37:46.941Z,101063.88
2024-02-29T11:40:16.771Z,101054.75
2024-02-29T11:42:44.039Z,101049.19
2024-02-29T11:45:21.097Z,101050.94
2024-02-29T11:47:48.564Z,101043.84
2024-02-29T11:50:15.837Z,101033.19
2024-02-29T11:52:43.007Z,101027.09
2024-02-29T11:55:11.731Z,101021.44
2024-02-29T11:57:38.970Z,101024.41
2024-02-29T12:00:07.480Z,101018.06
2024-02-29T12:02:35.481Z,101014.53
2024-02-29T12:05:02.717Z,101008.22
2024-02-29T12:07:29.950Z,100999.31
2024-02-29T12:09:57.286Z,101001.00
2024-02-29T12:12:24.494Z,100986.91
2024-02-29T12:14:51.639Z,100993.97
2024-02-29T12:17:20.016Z,100989.44
2024-02-29T12:19:47.406Z,100980.78
2024-02-29T12:22:14.739Z,100975.53
2024-02-29T12:24:44.883Z,100972.63
2024-02-29T12:27:12.286Z,100969.00
2024-02-29T12:29:39.946Z,100968.25
2024-02-29T12:32:07.090Z,100957.66
2024-02-29T12:34:36.103Z,100959.38
2024-02-29T12:37:03.307Z,100950.56
2024-02-29T12:39:30.483Z,100947.91
2024-02-29T12:41:57.710Z,100946.22
2024-02-29T12:44:25.745Z,100930.13
2024-02-29T12:46:53.383Z,100931.81
2024-02-29T12:49:20.552Z,100916.13
2024-02-29T12:51:49.014Z,100919.66
2024-02-29T12:54:16.223Z,100910.75
2024-02-29T12:56:43.757Z,100902.84
2024-02-29T12:59:11.452Z,100903.81
2024-02-29T13:01:39.178Z,100898.47
2024-02-29T13:04:06.454Z,100893.09
2024-02-29T13:06:33.607Z,100892.59
2024-02-29T13:09:00.774Z,100891.88
2024-02-29T13:11:28.101Z,100880.19
2024-02-29T13:13:55.379Z,100880.09
2024-02-29T13:16:22.592Z,100878.34
2024-02-29T13:18:49.819Z,100872.16
2024-02-29T13:21:17.014Z,100867.88
2024-02-29T13:23:44.888Z,100863.41
2024-02-29T13:26:13.071Z,100864.34
2024-02-29T13:28:40.314Z,100855.69
2024-02-29T13:31:09.556Z,100859.38
2024-02-29T13:33:36.789Z,100851.19
2024-02-29T13:36:04.085Z,100845.84
2024-02-29T13:38:31.278Z,100846.81
2024-02-29T13:41:01.200Z,100844.38
2024-02-29T13:43:28.376Z,100837.09
2024-02-29T13:45:55.760Z,100829.16
2024-02-29T13:48:23.710Z,100820.28
2024-02-29T13:50:50.875Z,100827.47
2024-02-29T13:53:18.033Z,100820.28
2024-02-29T13:55:48.431Z,100819.53
2024-02-29T13:58:15.931Z,100815.28
2024-02-29T14:00:43.236Z,100808.22
2024-02-29T14:03:10.501Z,100808.34
2024-02-29T14:05:37.719Z,100803.72
2024-02-29T14:08:05.053Z,100795.44
2024-02-29T14:10:32.375Z,100799.34
2024-02-29T14:12:59.634Z,100802.00
2024-02-29T14:15:26.862Z,100794.59
2024-02-29T14:17:54.091Z,100792.03
2024-02-29T14:20:21.309Z,100781.44
2024-02-29T14:22:51.204Z,100790.47
2024-02-29T14:25:18.592Z,100785.94
2024-02-29T14:27:46.255Z,100773.75
2024-02-29T14:30:14.542Z,100779.09
2024-02-29T14:32:41.935Z,100770.22
2024-02-29T14:35:09.226Z,100758.63
2024-02-29T14:37:36.377Z,100760.47
2024-02-29T14:40:05.577Z,100761.22
2024-02-29T14:42:32.867Z,100755.09
2024-02-29T14:45:00.016Z,100756.63
2024-02-29T14:47:29.410Z,100759.63
2024-02-29T14:49:56.879Z,100751.81
2024-02-29T14:52:27.545Z,100742.84
2024-02-29T14:54:55.000Z,100748.19
2024-02-29T14:57:22.196Z,100742.34
2024-02-29T14:59:49.345Z,100733.47
2024-02-29T15:02:16.833Z,100742.34
2024-02-29T15:04:44.416Z,100741.13
2024-02-29T15:07:14.327Z,100737.47
2024-02-29T15:09:41.524Z,100728.34
2024-02-29T15:12:09.019Z,100738.56
2024-02-29T15:14:36.182Z,100727.25
2024-02-29T15:17:04.395Z,100722.63
2024-02-29T15:19:31.596Z,100721.91
2024-02-29T15:21:59.168Z,100720.91
2024-02-29T15:24:26.464Z,100721.16
2024-02-29T15:26:59.804Z,100713.00
2024-02-29T15:29:27.610Z,100713.63
2024-02-29T15:31:54.810Z,100711.06
2024-02-29T15:34:22.252Z,100711.81
2024-02-29T15:36:49.540Z,100709.38
2024-02-29T15:39:16.747Z,100696.09
2024-02-29T15:41:44.917Z,100686.59
2024-02-29T15:44:12.226Z,100697.91
2024-02-29T15:46:39.519Z,100692.47
2024-02-29T15:49:06.926Z,100694.53
2024-02-29T15:51:34.183Z,100684.91
2024-02-29T15:54:01.338Z,100690.13
2024-02-29T15:56:29.020Z,100682.47
2024-02-29T15:58:56.820Z,100681.50
2024-02-29T16:01:24.131Z,100681.50
2024-02-29T16:03:51.350Z,100682.47
2024-02-29T16:06:20.543Z,100676.88
2024-02-29T16:08:47.912Z,100676.53
2024-02-29T16:11:15.251Z,100669.59
2024-02-29T16:13:42.585Z,100668.13
2024-02-29T16:16:09.857Z,100671.75
2024-02-29T16:18:37.144Z,100671.16
2024-02-29T16:21:07.057Z,100668.72
2024-02-29T16:23:37.266Z,100672.84
2024-02-29T16:26:05.267Z,100671.75
2024-02-29T16:28:32.450Z,100667.38
2024-02-29T16:30:59.661Z,100661.78
2024-02-29T16:33:26.850Z,100662.00
2024-02-29T16:35:54.023Z,100664.34
2024-02-29T16:38:21.441Z,100654.88
2024-02-29T16:40:48.889Z,100661.91
2024-02-29T16:43:21.619Z,100658.63
2024-02-29T16:45:49.684Z,100655.72
2024-02-29T16:48:16.829Z,100651.22
2024-02-29T16:50:45.997Z,100651.94
2024-02-29T16:53:13.457Z,100647.19
2024-02-29T16:55:40.625Z,100650.84
2024-02-29T16:58:07.816Z,100641.13
2024-02-29T17:00:35.007Z,100646.06
2024-02-29T17:03:02.156Z,100645.59
2024-02-29T17:05:29.451Z,100645.97
2024-02-29T17:07:56.596Z,100644.13
2024-02-29T17:10:23.822Z,100643.28
2024-02-29T17:12:51.001Z,100638.78
2024-02-29T17:15:18.190Z,100635.50
2024-02-29T17:17:45.432Z,100630.91
2024-02-29T17:20:12.679Z,100633.19
2024-02-29T17:22:40.333Z,100638.03
2024-02-29T17:25:07.888Z,100627.25
2024-02-29T17:27:35.669Z,100630.91
2024-02-29T17:30:02.838Z,100630.41
2024-02-29T17:32:30.985Z,100622.13
2024-02-29T17:34:58.158Z,100622.50
2024-02-29T17:37:29.254Z,100631.38
2024-02-29T17:39:57.863Z,100636.59
2024-02-29T17:42:29.475Z,100623.59
2024-02-29T17:44:56.660Z,100624.44
2024-02-29T17:47:23.808Z,100621.38
2024-02-29T17:49:50.977Z,100624.44
2024-02-29T17:52:18.388Z,100627.22
2024-02-29T17:54:45.554Z,100622.75
2024-02-29T17:57:13.715Z,100618.84
2024-02-29T17:59:41.234Z,100613.75
2024-02-29T18:02:08.717Z,100604.13
2024-02-29T18:04:36.311Z,100613.25
2024-02-29T18:07:03.655Z,100607.78
2024-02-29T18:09:30.819Z,100603.28
2024-02-29T18:11:57.972Z,100613.84
2024-02-29T18:14:25.125Z,100608.38
2024-02-29T18:16:52.343Z,100599.63
2024-02-29T18:19:19.590Z,100599.75
2024-02-29T18:21:47.235Z,100603.28
2024-02-29T18:24:14.441Z,100595.38
2024-02-29T18:26:41.626Z,100589.06
2024-02-29T18:29:08.789Z,100585.53
2024-02-29T18:31:35.926Z,100575.94
2024-02-29T18:34:03.610Z,100575.69
2024-02-29T18:36:30.850Z,100573.38
2024-02-29T18:38:58.014Z,100565.72
2024-02-29T18:41:28.087Z,100564.03
2024-02-29T18:43:55.866Z,100558.44
2024-02-29T18:46:23.047Z,100553.69
2024-02-29T18:48:50.201Z,100550.41
2024-02-29T18:51:17.365Z,100546.88
2024-02-29T18:53:44.526Z,100543.34
2024-02-29T18:56:11.669Z,100546.75
2024-02-29T18:58:38.832Z,100545.78
2024-02-29T19:01:06.065Z,100540.56
2024-02-29T19:03:33.332Z,100547.75
2024-02-29T19:06:00.533Z,100543.47
2024-02-29T19:08:27.725Z,100542.88
2024-02-29T19:10:56.894Z,100541.50
2024-02-29T19:13:24.487Z,100534.59
2024-02-29T19:15:52.288Z,100530.72
2024-02-29T19:18:19.583Z,100530.94
2024-02-29T19:20:46.855Z,100526.34
2024-02-29T19:23:14.059Z,100524.75
2024-02-29T19:25:45.774Z,100519.88
2024-02-29T19:28:13.048Z,100516.13
2024-02-29T19:30:40.204Z,100515.88
2024-02-29T19:33:07.457Z,100513.22
2024-02-29T19:35:35.451Z,100512.22
2024-02-29T19:38:02.655Z,100499.47
2024-02-29T19:40:29.885Z,100503.97
2024-02-29T19:42:57.089Z,100504.94
2024-02-29T19:45:24.725Z,100501.03
2024-02-29T19:47:52.614Z,100496.44
2024-02-29T19:50:21.441Z,100496.19
2024-02-29T19:52:48.586Z,100490.84
2024-02-29T19:55:16.006Z,100488.91
2024-02-29T19:57:43.210Z,100490.09
2024-02-29T20:00:11.961Z,100485.75
2024-02-29T20:02:39.153Z,100484.50
2024-02-29T20:05:06.672Z,100483.56
2024-02-29T20:07:34.529Z,100486.81
2024-02-29T20:10:01.799Z,100477.31
2024-02-29T20:12:29.082Z,100480.38
2024-02-29T20:14:56.247Z,100480.00
2024-02-29T20:17:23.642Z,100472.75
2024-02-29T20:19:51.437Z,100472.81
2024-02-29T20:22:18.654Z,100465.69
2024-02-29T20:24:46.020Z,100466.53
2024-02-29T20:27:13.199Z,100464.19
2024-02-29T20:29:44.674Z,100461.53
2024-02-29T20:32:14.764Z,100452.41
2024-02-29T20:34:41.917Z,100456.78
2024-02-29T20:37:09.090Z,100458.00
2024-02-29T20:39:36.301Z,100449.25
2024-02-29T20:42:03.453Z,100450.22
2024-02-29T20:44:30.631Z,100448.69
2024-02-29T20:46:57.898Z,100444.66
2024-02-29T20:49:25.048Z,100443.69
2024-02-29T20:51:52.215Z,100441.72
2024-02-29T20:54:19.352Z,100435.44
2024-02-29T20:56:46.506Z,100439.06
2024-02-29T20:59:13.696Z,100436.16
2024-02-29T21:01:43.063Z,100431.97
2024-02-29T21:04:11.631Z,100431.66
2024-02-29T21:06:38.796Z,100427.31
2024-02-29T21:09:06.241Z,100428.47
2024-02-29T21:11:33.466Z,100422.03
2024-02-29T21:14:00.621Z,100428.84
2024-02-29T21:16:27.768Z,100424.47
2024-02-29T21:18:54.999Z,100417.44
2024-02-29T21:21:22.166Z,100410.28
2024-02-29T21:23:49.329Z,100417.66
2024-02-29T21:26:16.988Z,100412.81
2024-02-29T21:28:47.403Z,100404.09
2024-02-29T21:31:14.658Z,100396.91
2024-02-29T21:33:41.828Z,100398.47
2024-02-29T21:36:08.983Z,100395.81
2024-02-29T21:38:36.307Z,100403.84
2024-02-29T21:41:03.536Z,100396.66
2024-02-29T21:43:30.791Z,100400.41
2024-02-29T21:45:58.023Z,100401.41
2024-02-29T21:48:25.209Z,100405.53
2024-02-29T21:50:52.444Z,100396.75
2024-02-29T21:53:19.716Z,100395.91
2024-02-29T21:55:46.877Z,100393.25
2024-02-29T21:58:14.081Z,100395.66
2024-02-29T22:00:41.340Z,100384.13
2024-02-29T22:03:08.576Z,100387.06
2024-02-29T22:05:35.765Z,100393.25
2024-02-29T22:08:02.954Z,100384.59
2024-02-29T22:10:30.155Z,100384.00
2024-02-29T22:12:57.467Z,100382.91
2024-02-29T22:15:24.648Z,100379.75
2024-02-29T22:17:56.805Z,100381.56
2024-02-29T22:20:24.880Z,100383.25
2024-02-29T22:22:52.109Z,100374.66
2024-02-29T22:25:19.366Z,100363.69
2024-02-29T22:27:46.735Z,100359.44
2024-02-29T22:30:14.093Z,100363.94
2024-02-29T22:32:41.618Z,100364.94
2024-02-29T22:35:08.917Z,100347.91
2024-02-29T22:37:36.203Z,100351.56
2024-02-29T22:40:05.017Z,100350.84
2024-02-29T22:42:32.265Z,100341.88
2024-02-29T22:44:59.391Z,100342.81
2024-02-29T22:47:26.554Z,100336.75
2024-02-29T22:49:53.741Z,100332.38
2024-02-29T22:52:20.970Z,100334.19
2024-02-29T22:54:48.130Z,100329.69
2024-02-29T22:57:15.270Z,100321.09
2024-02-29T22:59:42.450Z,100321.94
2024-02-29T23:02:09.672Z,100326.56
2024-02-29T23:04:36.905Z,100323.06
2024-02-29T23:07:04.070Z,100318.56
2024-02-29T23:09:31.236Z,100317.81
2024-02-29T23:12:00.587Z,100319.50
2024-02-29T23:14:28.812Z,100314.16
2024-02-29T23:16:56.018Z,100309.78
2024-02-29T23:19:23.200Z,100308.69
2024-02-29T23:21:50.414Z,100302.63
2024-02-29T23:24:17.612Z,100304.69
2024-02-29T23:26:44.749Z,100297.78
2024-02-29T23:29:11.891Z,100290.09
2024-02-29T23:31:39.694Z,100290.25
2024-02-29T23:34:06.954Z,100299.34
2024-02-29T23:36:34.114Z,100291.22
2024-02-29T23:39:01.299Z,100292.31
2024-02-29T23:41:28.437Z,100289.66
2024-02-29T23:43:55.598Z,100288.31
2024-02-29T23:46:22.782Z,100283.56
2024-02-29T23:48:49.969Z,100287.22
2024-02-29T23:51:18.863Z,100289.50
2024-02-29T23:53:46.028Z,100274.56
2024-02-29T23:56:13.185Z,100270.34
2024-02-29T23:58:41.180Z,100276.41
